sensor_id;sensor_type;location;lat;lon;timestamp;P1;durP1;ratioP1;P2;durP2;ratioP2
74162;SDS011;62515;52.758;5.076;2024-03-07T00:02:21;77.28;;;30.15;;
74162;SDS011;62515;52.758;5.076;2024-03-07T00:04:49;67.25;;;29.67;;
74162;SDS011;62515;52.758;5.076;2024-03-07T00:07:17;65.30;;;27.33;;
74162;SDS011;62515;52.758;5.076;2024-03-07T00:09:44;76.93;;;34.05;;
74162;SDS011;62515;52.758;5.076;2024-03-07T00:12:11;70.65;;;29.30;;
74162;SDS011;62515;52.758;5.076;2024-03-07T00:14:41;75.03;;;32.65;;
74162;SDS011;62515;52.758;5.076;2024-03-07T00:17:08;66.57;;;30.58;;
74162;SDS011;62515;52.758;5.076;2024-03-07T00:19:35;80.63;;;30.67;;
74162;SDS011;62515;52.758;5.076;2024-03-07T00:22:03;89.03;;;35.28;;
74162;SDS011;62515;52.758;5.076;2024-03-07T00:24:33;77.60;;;33.22;;
74162;SDS011;62515;52.758;5.076;2024-03-07T00:27:00;70.03;;;31.98;;
74162;SDS011;62515;52.758;5.076;2024-03-07T00:29:28;82.07;;;32.35;;
74162;SDS011;62515;52.758;5.076;2024-03-07T00:31:56;99.50;;;37.72;;
74162;SDS011;62515;52.758;5.076;2024-03-07T00:34:24;68.63;;;32.58;;
74162;SDS011;62515;52.758;5.076;2024-03-07T00:36:52;81.10;;;35.15;;
74162;SDS011;62515;52.758;5.076;2024-03-07T00:39:20;80.55;;;34.20;;
74162;SDS011;62515;52.758;5.076;2024-03-07T00:41:47;76.07;;;31.85;;
74162;SDS011;62515;52.758;5.076;2024-03-07T00:44:15;90.05;;;37.35;;
74162;SDS011;62515;52.758;5.076;2024-03-07T00:46:42;82.63;;;31.40;;
74162;SDS011;62515;52.758;5.076;2024-03-07T00:49:11;83.80;;;33.08;;
74162;SDS011;62515;52.758;5.076;2024-03-07T00:51:38;70.72;;;29.77;;
74162;SDS011;62515;52.758;5.076;2024-03-07T00:54:06;92.03;;;37.45;;
74162;SDS011;62515;52.758;5.076;2024-03-07T00:56:33;79.43;;;33.03;;
74162;SDS011;62515;52.758;5.076;2024-03-07T00:59:01;71.20;;;30.92;;
74162;SDS011;62515;52.758;5.076;2024-03-07T01:01:28;77.72;;;29.30;;
74162;SDS011;62515;52.758;5.076;2024-03-07T01:03:56;79.13;;;31.67;;
74162;SDS011;62515;52.758;5.076;2024-03-07T01:06:24;75.32;;;31.73;;
74162;SDS011;62515;52.758;5.076;2024-03-07T01:08:52;78.38;;;31.73;;
74162;SDS011;62515;52.758;5.076;2024-03-07T01:11:19;72.32;;;29.17;;
74162;SDS011;62515;52.758;5.076;2024-03-07T01:13:47;78.43;;;34.08;;
74162;SDS011;62515;52.758;5.076;2024-03-07T01:16:14;89.30;;;33.50;;
74162;SDS011;62515;52.758;5.076;2024-03-07T01:18:42;77.80;;;33.10;;
74162;SDS011;62515;52.758;5.076;2024-03-07T01:21:09;71.47;;;30.50;;
74162;SDS011;62515;52.758;5.076;2024-03-07T01:23:38;82.22;;;34.45;;
74162;SDS011;62515;52.758;5.076;2024-03-07T01:26:05;86.20;;;35.78;;
74162;SDS011;62515;52.758;5.076;2024-03-07T01:28:33;79.25;;;31.70;;
74162;SDS011;62515;52.758;5.076;2024-03-07T01:31:00;80.82;;;33.15;;
74162;SDS011;62515;52.758;5.076;2024-03-07T01:33:28;72.95;;;32.53;;
74162;SDS011;62515;52.758;5.076;2024-03-07T01:35:55;81.72;;;33.97;;
74162;SDS011;62515;52.758;5.076;2024-03-07T01:38:22;81.65;;;34.83;;
74162;SDS011;62515;52.758;5.076;2024-03-07T01:40:51;81.38;;;36.13;;
74162;SDS011;62515;52.758;5.076;2024-03-07T01:43:19;67.78;;;30.40;;
74162;SDS011;62515;52.758;5.076;2024-03-07T01:45:46;77.22;;;29.30;;
74162;SDS011;62515;52.758;5.076;2024-03-07T01:48:15;75.53;;;31.27;;
74162;SDS011;62515;52.758;5.076;2024-03-07T01:50:51;84.43;;;34.30;;
74162;SDS011;62515;52.758;5.076;2024-03-07T01:53:20;81.97;;;33.35;;
74162;SDS011;62515;52.758;5.076;2024-03-07T01:55:47;68.47;;;32.63;;
74162;SDS011;62515;52.758;5.076;2024-03-07T01:58:17;78.53;;;34.47;;
74162;SDS011;62515;52.758;5.076;2024-03-07T02:00:46;74.35;;;32.90;;
74162;SDS011;62515;52.758;5.076;2024-03-07T02:03:13;74.50;;;31.33;;
74162;SDS011;62515;52.758;5.076;2024-03-07T02:05:41;90.38;;;35.58;;
74162;SDS011;62515;52.758;5.076;2024-03-07T02:08:08;73.00;;;31.60;;
74162;SDS011;62515;52.758;5.076;2024-03-07T02:10:36;80.78;;;32.90;;
74162;SDS011;62515;52.758;5.076;2024-03-07T02:13:03;79.38;;;33.35;;
74162;SDS011;62515;52.758;5.076;2024-03-07T02:15:32;74.50;;;31.90;;
74162;SDS011;62515;52.758;5.076;2024-03-07T02:18:00;86.72;;;33.00;;
74162;SDS011;62515;52.758;5.076;2024-03-07T02:20:28;67.65;;;32.60;;
74162;SDS011;62515;52.758;5.076;2024-03-07T02:22:56;81.70;;;31.90;;
74162;SDS011;62515;52.758;5.076;2024-03-07T02:25:24;88.03;;;36.13;;
74162;SDS011;62515;52.758;5.076;2024-03-07T02:27:51;83.30;;;32.28;;
74162;SDS011;62515;52.758;5.076;2024-03-07T02:30:19;92.00;;;36.65;;
74162;SDS011;62515;52.758;5.076;2024-03-07T02:32:46;70.28;;;29.67;;
74162;SDS011;62515;52.758;5.076;2024-03-07T02:35:14;93.82;;;34.83;;
74162;SDS011;62515;52.758;5.076;2024-03-07T02:37:41;83.00;;;35.28;;
74162;SDS011;62515;52.758;5.076;2024-03-07T02:40:11;84.70;;;33.50;;
74162;SDS011;62515;52.758;5.076;2024-03-07T02:42:39;94.28;;;35.40;;
74162;SDS011;62515;52.758;5.076;2024-03-07T02:45:06;93.43;;;35.70;;
74162;SDS011;62515;52.758;5.076;2024-03-07T02:47:34;91.80;;;34.90;;
74162;SDS011;62515;52.758;5.076;2024-03-07T02:50:02;79.75;;;33.63;;
74162;SDS011;62515;52.758;5.076;2024-03-07T02:52:29;81.82;;;34.22;;
74162;SDS011;62515;52.758;5.076;2024-03-07T02:54:57;73.18;;;33.67;;
74162;SDS011;62515;52.758;5.076;2024-03-07T02:57:26;76.85;;;30.98;;
74162;SDS011;62515;52.758;5.076;2024-03-07T02:59:53;85.97;;;45.08;;
74162;SDS011;62515;52.758;5.076;2024-03-07T03:02:21;86.97;;;36.30;;
74162;SDS011;62515;52.758;5.076;2024-03-07T03:04:48;80.53;;;30.83;;
74162;SDS011;62515;52.758;5.076;2024-03-07T03:07:15;102.20;;;40.95;;
74162;SDS011;62515;52.758;5.076;2024-03-07T03:09:43;96.15;;;39.30;;
74162;SDS011;62515;52.758;5.076;2024-03-07T03:12:10;83.47;;;34.15;;
74162;SDS011;62515;52.758;5.076;2024-03-07T03:14:39;72.45;;;34.58;;
74162;SDS011;62515;52.758;5.076;2024-03-07T03:17:07;88.10;;;33.17;;
74162;SDS011;62515;52.758;5.076;2024-03-07T03:19:34;81.50;;;33.35;;
74162;SDS011;62515;52.758;5.076;2024-03-07T03:22:02;78.85;;;33.25;;
74162;SDS011;62515;52.758;5.076;2024-03-07T03:24:29;73.35;;;32.47;;
74162;SDS011;62515;52.758;5.076;2024-03-07T03:26:56;82.20;;;34.47;;
74162;SDS011;62515;52.758;5.076;2024-03-07T03:29:24;84.07;;;35.10;;
74162;SDS011;62515;52.758;5.076;2024-03-07T03:31:53;89.78;;;35.60;;
74162;SDS011;62515;52.758;5.076;2024-03-07T03:36:48;97.80;;;37.03;;
74162;SDS011;62515;52.758;5.076;2024-03-07T03:39:16;85.32;;;35.83;;
74162;SDS011;62515;52.758;5.076;2024-03-07T03:41:43;94.13;;;38.28;;
74162;SDS011;62515;52.758;5.076;2024-03-07T03:44:10;93.65;;;37.85;;
74162;SDS011;62515;52.758;5.076;2024-03-07T03:46:38;88.15;;;39.22;;
74162;SDS011;62515;52.758;5.076;2024-03-07T03:49:07;81.93;;;36.40;;
74162;SDS011;62515;52.758;5.076;2024-03-07T03:51:34;75.22;;;36.15;;
74162;SDS011;62515;52.758;5.076;2024-03-07T03:54:02;83.40;;;37.03;;
74162;SDS011;62515;52.758;5.076;2024-03-07T03:56:29;77.50;;;35.38;;
74162;SDS011;62515;52.758;5.076;2024-03-07T03:58:57;61.50;;;32.97;;
74162;SDS011;62515;52.758;5.076;2024-03-07T04:01:24;64.70;;;31.90;;
74162;SDS011;62515;52.758;5.076;2024-03-07T04:03:51;56.00;;;32.03;;
74162;SDS011;62515;52.758;5.076;2024-03-07T04:06:20;47.45;;;28.83;;
74162;SDS011;62515;52.758;5.076;2024-03-07T04:08:48;48.92;;;31.95;;
74162;SDS011;62515;52.758;5.076;2024-03-07T04:11:15;42.63;;;25.42;;
74162;SDS011;62515;52.758;5.076;2024-03-07T04:13:44;41.58;;;25.88;;
74162;SDS011;62515;52.758;5.076;2024-03-07T04:16:12;48.95;;;27.33;;
74162;SDS011;62515;52.758;5.076;2024-03-07T04:18:41;39.80;;;23.63;;
74162;SDS011;62515;52.758;5.076;2024-03-07T04:21:08;44.60;;;25.08;;
74162;SDS011;62515;52.758;5.076;2024-03-07T04:23:37;50.63;;;32.17;;
74162;SDS011;62515;52.758;5.076;2024-03-07T04:26:07;37.72;;;24.65;;
74162;SDS011;62515;52.758;5.076;2024-03-07T04:28:34;45.35;;;27.42;;
74162;SDS011;62515;52.758;5.076;2024-03-07T04:31:02;43.67;;;27.10;;
74162;SDS011;62515;52.758;5.076;2024-03-07T04:33:29;38.63;;;22.55;;
74162;SDS011;62515;52.758;5.076;2024-03-07T04:35:57;47.20;;;25.70;;
74162;SDS011;62515;52.758;5.076;2024-03-07T04:38:24;42.25;;;27.98;;
74162;SDS011;62515;52.758;5.076;2024-03-07T04:40:53;48.17;;;28.42;;
74162;SDS011;62515;52.758;5.076;2024-03-07T04:43:20;50.50;;;29.20;;
74162;SDS011;62515;52.758;5.076;2024-03-07T04:45:48;45.28;;;31.25;;
74162;SDS011;62515;52.758;5.076;2024-03-07T04:48:15;51.13;;;31.70;;
74162;SDS011;62515;52.758;5.076;2024-03-07T04:50:43;49.63;;;31.40;;
74162;SDS011;62515;52.758;5.076;2024-03-07T04:53:10;46.63;;;30.55;;
74162;SDS011;62515;52.758;5.076;2024-03-07T04:55:38;46.03;;;29.42;;
74162;SDS011;62515;52.758;5.076;2024-03-07T04:58:06;43.15;;;32.47;;
74162;SDS011;62515;52.758;5.076;2024-03-07T05:00:34;46.72;;;40.58;;
74162;SDS011;62515;52.758;5.076;2024-03-07T05:03:02;44.33;;;31.95;;
74162;SDS011;62515;52.758;5.076;2024-03-07T05:05:29;42.42;;;32.03;;
74162;SDS011;62515;52.758;5.076;2024-03-07T05:07:57;48.75;;;32.13;;
74162;SDS011;62515;52.758;5.076;2024-03-07T05:10:24;43.22;;;29.65;;
74162;SDS011;62515;52.758;5.076;2024-03-07T05:12:52;45.40;;;27.23;;
74162;SDS011;62515;52.758;5.076;2024-03-07T05:15:20;41.58;;;26.30;;
74162;SDS011;62515;52.758;5.076;2024-03-07T05:17:48;47.55;;;31.35;;
74162;SDS011;62515;52.758;5.076;2024-03-07T05:20:16;38.25;;;24.73;;
74162;SDS011;62515;52.758;5.076;2024-03-07T05:22:43;46.90;;;26.02;;
74162;SDS011;62515;52.758;5.076;2024-03-07T05:25:12;45.90;;;28.33;;
74162;SDS011;62515;52.758;5.076;2024-03-07T05:27:39;49.80;;;30.67;;
74162;SDS011;62515;52.758;5.076;2024-03-07T05:30:07;40.58;;;27.65;;
74162;SDS011;62515;52.758;5.076;2024-03-07T05:32:38;36.75;;;24.98;;
74162;SDS011;62515;52.758;5.076;2024-03-07T05:35:06;47.72;;;24.42;;
74162;SDS011;62515;52.758;5.076;2024-03-07T05:37:34;50.33;;;29.88;;
74162;SDS011;62515;52.758;5.076;2024-03-07T05:40:02;42.78;;;25.73;;
74162;SDS011;62515;52.758;5.076;2024-03-07T05:42:29;45.95;;;27.35;;
74162;SDS011;62515;52.758;5.076;2024-03-07T05:44:57;47.97;;;25.95;;
74162;SDS011;62515;52.758;5.076;2024-03-07T05:47:24;39.47;;;25.05;;
74162;SDS011;62515;52.758;5.076;2024-03-07T05:49:53;44.88;;;27.27;;
74162;SDS011;62515;52.758;5.076;2024-03-07T05:52:20;46.28;;;26.63;;
74162;SDS011;62515;52.758;5.076;2024-03-07T05:54:48;38.15;;;23.20;;
74162;SDS011;62515;52.758;5.076;2024-03-07T05:57:15;44.05;;;26.73;;
74162;SDS011;62515;52.758;5.076;2024-03-07T05:59:43;45.58;;;31.92;;
74162;SDS011;62515;52.758;5.076;2024-03-07T06:02:10;50.53;;;33.10;;
74162;SDS011;62515;52.758;5.076;2024-03-07T06:04:37;37.30;;;23.00;;
74162;SDS011;62515;52.758;5.076;2024-03-07T06:07:06;51.92;;;28.92;;
74162;SDS011;62515;52.758;5.076;2024-03-07T06:09:34;39.42;;;24.95;;
74162;SDS011;62515;52.758;5.076;2024-03-07T06:12:01;38.63;;;26.20;;
74162;SDS011;62515;52.758;5.076;2024-03-07T06:14:35;41.63;;;25.70;;
74162;SDS011;62515;52.758;5.076;2024-03-07T06:17:03;41.05;;;25.65;;
74162;SDS011;62515;52.758;5.076;2024-03-07T06:19:31;46.92;;;32.40;;
74162;SDS011;62515;52.758;5.076;2024-03-07T06:21:58;49.63;;;36.03;;
74162;SDS011;62515;52.758;5.076;2024-03-07T06:24:27;43.40;;;29.25;;
74162;SDS011;62515;52.758;5.076;2024-03-07T06:26:55;46.90;;;29.73;;
74162;SDS011;62515;52.758;5.076;2024-03-07T06:29:24;34.15;;;25.83;;
74162;SDS011;62515;52.758;5.076;2024-03-07T06:31:53;40.88;;;24.40;;
74162;SDS011;62515;52.758;5.076;2024-03-07T06:34:21;44.95;;;30.25;;
74162;SDS011;62515;52.758;5.076;2024-03-07T06:36:50;37.42;;;24.95;;
74162;SDS011;62515;52.758;5.076;2024-03-07T06:39:17;45.35;;;27.95;;
74162;SDS011;62515;52.758;5.076;2024-03-07T06:41:46;39.60;;;26.38;;
74162;SDS011;62515;52.758;5.076;2024-03-07T06:44:14;42.45;;;27.45;;
74162;SDS011;62515;52.758;5.076;2024-03-07T06:50:30;40.42;;;30.80;;
74162;SDS011;62515;52.758;5.076;2024-03-07T06:53:03;38.85;;;24.63;;
74162;SDS011;62515;52.758;5.076;2024-03-07T06:55:31;38.90;;;28.20;;
74162;SDS011;62515;52.758;5.076;2024-03-07T06:58:09;40.20;;;26.33;;
74162;SDS011;62515;52.758;5.076;2024-03-07T07:00:37;34.20;;;23.23;;
74162;SDS011;62515;52.758;5.076;2024-03-07T07:03:06;33.67;;;21.73;;
74162;SDS011;62515;52.758;5.076;2024-03-07T07:05:35;37.83;;;33.35;;
74162;SDS011;62515;52.758;5.076;2024-03-07T07:08:03;44.22;;;39.75;;
74162;SDS011;62515;52.758;5.076;2024-03-07T07:10:31;34.50;;;28.52;;
74162;SDS011;62515;52.758;5.076;2024-03-07T07:12:59;42.33;;;37.60;;
74162;SDS011;62515;52.758;5.076;2024-03-07T07:33:07;28.65;;;23.75;;
74162;SDS011;62515;52.758;5.076;2024-03-07T07:35:35;24.85;;;19.70;;
74162;SDS011;62515;52.758;5.076;2024-03-07T07:38:03;27.63;;;22.45;;
74162;SDS011;62515;52.758;5.076;2024-03-07T07:40:31;38.38;;;25.55;;
74162;SDS011;62515;52.758;5.076;2024-03-07T07:42:58;24.45;;;21.58;;
74162;SDS011;62515;52.758;5.076;2024-03-07T07:45:31;27.27;;;24.48;;
74162;SDS011;62515;52.758;5.076;2024-03-07T07:47:59;28.02;;;25.10;;
74162;SDS011;62515;52.758;5.076;2024-03-07T07:50:28;35.22;;;31.92;;
74162;SDS011;62515;52.758;5.076;2024-03-07T07:52:56;28.15;;;23.58;;
74162;SDS011;62515;52.758;5.076;2024-03-07T07:55:25;38.05;;;34.42;;
74162;SDS011;62515;52.758;5.076;2024-03-07T07:57:55;42.92;;;39.42;;
74162;SDS011;62515;52.758;5.076;2024-03-07T08:00:23;33.60;;;30.38;;
74162;SDS011;62515;52.758;5.076;2024-03-07T08:02:53;42.60;;;38.95;;
74162;SDS011;62515;52.758;5.076;2024-03-07T08:05:24;30.13;;;27.00;;
74162;SDS011;62515;52.758;5.076;2024-03-07T08:07:55;30.08;;;21.48;;
74162;SDS011;62515;52.758;5.076;2024-03-07T08:10:23;30.35;;;27.35;;
74162;SDS011;62515;52.758;5.076;2024-03-07T08:12:52;27.38;;;21.58;;
74162;SDS011;62515;52.758;5.076;2024-03-07T08:15:20;27.05;;;24.20;;
74162;SDS011;62515;52.758;5.076;2024-03-07T08:17:47;32.05;;;28.95;;
74162;SDS011;62515;52.758;5.076;2024-03-07T08:20:16;30.02;;;27.02;;
74162;SDS011;62515;52.758;5.076;2024-03-07T08:22:49;22.25;;;20.02;;
74162;SDS011;62515;52.758;5.076;2024-03-07T08:25:19;24.08;;;18.25;;
74162;SDS011;62515;52.758;5.076;2024-03-07T08:27:48;22.05;;;17.33;;
74162;SDS011;62515;52.758;5.076;2024-03-07T08:30:16;24.75;;;22.38;;
74162;SDS011;62515;52.758;5.076;2024-03-07T08:32:45;25.50;;;19.58;;
74162;SDS011;62515;52.758;5.076;2024-03-07T08:35:14;26.67;;;24.10;;
74162;SDS011;62515;52.758;5.076;2024-03-07T08:37:43;27.27;;;24.45;;
74162;SDS011;62515;52.758;5.076;2024-03-07T08:40:11;21.15;;;17.17;;
74162;SDS011;62515;52.758;5.076;2024-03-07T08:42:41;21.38;;;17.23;;
74162;SDS011;62515;52.758;5.076;2024-03-07T08:45:09;18.77;;;15.45;;
74162;SDS011;62515;52.758;5.076;2024-03-07T08:47:37;25.75;;;18.42;;
74162;SDS011;62515;52.758;5.076;2024-03-07T08:50:16;23.65;;;21.20;;
74162;SDS011;62515;52.758;5.076;2024-03-07T08:52:56;19.92;;;15.10;;
74162;SDS011;62515;52.758;5.076;2024-03-07T08:55:24;24.60;;;16.40;;
74162;SDS011;62515;52.758;5.076;2024-03-07T08:57:53;18.77;;;16.50;;
74162;SDS011;62515;52.758;5.076;2024-03-07T09:00:22;24.15;;;21.80;;
74162;SDS011;62515;52.758;5.076;2024-03-07T09:02:50;19.77;;;17.35;;
74162;SDS011;62515;52.758;5.076;2024-03-07T09:05:18;22.90;;;19.65;;
74162;SDS011;62515;52.758;5.076;2024-03-07T09:07:47;22.25;;;19.83;;
74162;SDS011;62515;52.758;5.076;2024-03-07T09:10:15;20.70;;;17.45;;
74162;SDS011;62515;52.758;5.076;2024-03-07T09:12:43;19.23;;;17.10;;
74162;SDS011;62515;52.758;5.076;2024-03-07T09:15:12;22.85;;;18.15;;
74162;SDS011;62515;52.758;5.076;2024-03-07T09:17:40;22.20;;;16.40;;
74162;SDS011;62515;52.758;5.076;2024-03-07T09:20:08;21.75;;;15.95;;
74162;SDS011;62515;52.758;5.076;2024-03-07T09:22:38;20.58;;;16.27;;
74162;SDS011;62515;52.758;5.076;2024-03-07T09:25:07;23.05;;;16.88;;
74162;SDS011;62515;52.758;5.076;2024-03-07T09:27:40;20.02;;;16.08;;
74162;SDS011;62515;52.758;5.076;2024-03-07T09:30:20;19.30;;;15.70;;
74162;SDS011;62515;52.758;5.076;2024-03-07T09:32:48;17.92;;;14.25;;
74162;SDS011;62515;52.758;5.076;2024-03-07T09:35:16;24.70;;;18.83;;
74162;SDS011;62515;52.758;5.076;2024-03-07T09:37:44;19.52;;;14.75;;
74162;SDS011;62515;52.758;5.076;2024-03-07T09:40:12;22.23;;;17.42;;
74162;SDS011;62515;52.758;5.076;2024-03-07T09:42:43;22.10;;;15.90;;
74162;SDS011;62515;52.758;5.076;2024-03-07T09:45:15;23.55;;;16.40;;
74162;SDS011;62515;52.758;5.076;2024-03-07T09:47:46;21.55;;;16.63;;
74162;SDS011;62515;52.758;5.076;2024-03-07T09:50:17;20.10;;;18.10;;
74162;SDS011;62515;52.758;5.076;2024-03-07T09:52:46;20.23;;;15.93;;
74162;SDS011;62515;52.758;5.076;2024-03-07T09:55:15;19.48;;;16.25;;
74162;SDS011;62515;52.758;5.076;2024-03-07T09:57:43;18.17;;;16.25;;
74162;SDS011;62515;52.758;5.076;2024-03-07T10:00:14;16.75;;;14.93;;
74162;SDS011;62515;52.758;5.076;2024-03-07T10:02:53;16.73;;;14.10;;
74162;SDS011;62515;52.758;5.076;2024-03-07T10:05:22;17.20;;;13.15;;
74162;SDS011;62515;52.758;5.076;2024-03-07T10:07:56;16.98;;;13.68;;
74162;SDS011;62515;52.758;5.076;2024-03-07T10:14:17;21.38;;;19.33;;
74162;SDS011;62515;52.758;5.076;2024-03-07T10:16:45;14.90;;;13.23;;
74162;SDS011;62515;52.758;5.076;2024-03-07T10:19:15;16.88;;;14.57;;
74162;SDS011;62515;52.758;5.076;2024-03-07T10:21:42;34.72;;;25.60;;
74162;SDS011;62515;52.758;5.076;2024-03-07T10:24:10;16.58;;;13.43;;
74162;SDS011;62515;52.758;5.076;2024-03-07T10:26:38;14.88;;;12.45;;
74162;SDS011;62515;52.758;5.076;2024-03-07T10:29:18;16.00;;;12.95;;
74162;SDS011;62515;52.758;5.076;2024-03-07T10:31:46;14.50;;;12.50;;
74162;SDS011;62515;52.758;5.076;2024-03-07T10:34:24;16.25;;;14.18;;
74162;SDS011;62515;52.758;5.076;2024-03-07T10:36:59;13.75;;;11.48;;
74162;SDS011;62515;52.758;5.076;2024-03-07T10:39:28;14.95;;;12.07;;
74162;SDS011;62515;52.758;5.076;2024-03-07T10:41:57;14.75;;;12.90;;
74162;SDS011;62515;52.758;5.076;2024-03-07T10:45:01;15.38;;;13.52;;
74162;SDS011;62515;52.758;5.076;2024-03-07T10:47:35;16.60;;;11.95;;
74162;SDS011;62515;52.758;5.076;2024-03-07T10:50:09;16.20;;;12.88;;
74162;SDS011;62515;52.758;5.076;2024-03-07T10:52:52;14.25;;;12.65;;
74162;SDS011;62515;52.758;5.076;2024-03-07T10:55:29;14.70;;;12.15;;
74162;SDS011;62515;52.758;5.076;2024-03-07T10:58:02;15.48;;;12.88;;
74162;SDS011;62515;52.758;5.076;2024-03-07T11:42:20;18.15;;;14.18;;
74162;SDS011;62515;52.758;5.076;2024-03-07T11:44:53;17.85;;;15.05;;
74162;SDS011;62515;52.758;5.076;2024-03-07T11:47:21;24.58;;;16.63;;
74162;SDS011;62515;52.758;5.076;2024-03-07T11:49:51;22.98;;;20.55;;
74162;SDS011;62515;52.758;5.076;2024-03-07T11:52:19;23.58;;;18.40;;
74162;SDS011;62515;52.758;5.076;2024-03-07T11:54:48;24.05;;;17.15;;
74162;SDS011;62515;52.758;5.076;2024-03-07T11:57:15;24.15;;;21.63;;
74162;SDS011;62515;52.758;5.076;2024-03-07T11:59:47;22.58;;;16.52;;
74162;SDS011;62515;52.758;5.076;2024-03-07T12:02:15;20.65;;;16.67;;
74162;SDS011;62515;52.758;5.076;2024-03-07T12:04:43;24.08;;;16.38;;
74162;SDS011;62515;52.758;5.076;2024-03-07T12:07:12;21.90;;;14.35;;
74162;SDS011;62515;52.758;5.076;2024-03-07T12:09:39;18.08;;;14.27;;
74162;SDS011;62515;52.758;5.076;2024-03-07T12:12:07;18.33;;;13.82;;
74162;SDS011;62515;52.758;5.076;2024-03-07T12:14:35;22.90;;;14.80;;
74162;SDS011;62515;52.758;5.076;2024-03-07T12:17:04;20.92;;;15.88;;
74162;SDS011;62515;52.758;5.076;2024-03-07T12:19:43;24.73;;;17.48;;
74162;SDS011;62515;52.758;5.076;2024-03-07T12:22:16;22.98;;;16.83;;
74162;SDS011;62515;52.758;5.076;2024-03-07T12:24:59;19.08;;;14.98;;
74162;SDS011;62515;52.758;5.076;2024-03-07T12:27:27;18.98;;;13.48;;
74162;SDS011;62515;52.758;5.076;2024-03-07T12:29:57;23.83;;;17.15;;
74162;SDS011;62515;52.758;5.076;2024-03-07T12:32:25;24.17;;;16.63;;
74162;SDS011;62515;52.758;5.076;2024-03-07T12:34:54;26.15;;;19.73;;
74162;SDS011;62515;52.758;5.076;2024-03-07T12:37:21;25.13;;;20.27;;
74162;SDS011;62515;52.758;5.076;2024-03-07T12:39:48;25.25;;;17.48;;
74162;SDS011;62515;52.758;5.076;2024-03-07T12:42:15;25.38;;;20.73;;
74162;SDS011;62515;52.758;5.076;2024-03-07T12:44:42;24.13;;;19.80;;
74162;SDS011;62515;52.758;5.076;2024-03-07T12:47:10;27.58;;;19.17;;
74162;SDS011;62515;52.758;5.076;2024-03-07T12:49:38;24.85;;;18.67;;
74162;SDS011;62515;52.758;5.076;2024-03-07T12:52:05;25.48;;;18.90;;
74162;SDS011;62515;52.758;5.076;2024-03-07T12:54:32;28.27;;;20.77;;
74162;SDS011;62515;52.758;5.076;2024-03-07T12:56:59;23.60;;;18.08;;
74162;SDS011;62515;52.758;5.076;2024-03-07T12:59:26;25.88;;;20.70;;
74162;SDS011;62515;52.758;5.076;2024-03-07T13:01:53;31.48;;;22.08;;
74162;SDS011;62515;52.758;5.076;2024-03-07T13:04:19;30.20;;;20.33;;
74162;SDS011;62515;52.758;5.076;2024-03-07T13:06:48;32.65;;;24.17;;
74162;SDS011;62515;52.758;5.076;2024-03-07T13:09:14;39.20;;;21.38;;
74162;SDS011;62515;52.758;5.076;2024-03-07T13:11:41;28.40;;;21.02;;
74162;SDS011;62515;52.758;5.076;2024-03-07T13:14:08;22.35;;;16.77;;
74162;SDS011;62515;52.758;5.076;2024-03-07T13:16:35;25.92;;;17.63;;
74162;SDS011;62515;52.758;5.076;2024-03-07T13:19:02;20.10;;;14.57;;
74162;SDS011;62515;52.758;5.076;2024-03-07T13:21:28;27.33;;;20.83;;
74162;SDS011;62515;52.758;5.076;2024-03-07T13:23:56;24.10;;;16.85;;
74162;SDS011;62515;52.758;5.076;2024-03-07T13:26:23;22.65;;;15.60;;
74162;SDS011;62515;52.758;5.076;2024-03-07T13:28:51;23.90;;;16.83;;
74162;SDS011;62515;52.758;5.076;2024-03-07T13:31:19;21.15;;;16.40;;
74162;SDS011;62515;52.758;5.076;2024-03-07T13:33:46;24.63;;;20.73;;
74162;SDS011;62515;52.758;5.076;2024-03-07T13:36:13;27.15;;;19.15;;
74162;SDS011;62515;52.758;5.076;2024-03-07T13:38:40;30.63;;;20.45;;
74162;SDS011;62515;52.758;5.076;2024-03-07T13:41:08;27.35;;;21.27;;
74162;SDS011;62515;52.758;5.076;2024-03-07T13:47:00;26.05;;;21.27;;
74162;SDS011;62515;52.758;5.076;2024-03-07T13:49:27;28.13;;;25.13;;
74162;SDS011;62515;52.758;5.076;2024-03-07T13:51:54;23.95;;;20.77;;
74162;SDS011;62515;52.758;5.076;2024-03-07T13:54:21;20.75;;;15.80;;
74162;SDS011;62515;52.758;5.076;2024-03-07T13:56:51;29.88;;;26.70;;
74162;SDS011;62515;52.758;5.076;2024-03-07T13:59:36;22.63;;;15.55;;
74162;SDS011;62515;52.758;5.076;2024-03-07T14:02:34;36.67;;;32.42;;
74162;SDS011;62515;52.758;5.076;2024-03-07T14:05:19;28.63;;;25.63;;
74162;SDS011;62515;52.758;5.076;2024-03-07T14:08:20;20.88;;;15.15;;
74162;SDS011;62515;52.758;5.076;2024-03-07T14:11:11;22.02;;;16.15;;
74162;SDS011;62515;52.758;5.076;2024-03-07T14:14:02;20.08;;;14.35;;
74162;SDS011;62515;52.758;5.076;2024-03-07T14:20:11;21.80;;;16.90;;
74162;SDS011;62515;52.758;5.076;2024-03-07T14:23:10;21.05;;;17.70;;
74162;SDS011;62515;52.758;5.076;2024-03-07T14:25:50;19.08;;;15.27;;
74162;SDS011;62515;52.758;5.076;2024-03-07T14:28:44;21.42;;;15.05;;
74162;SDS011;62515;52.758;5.076;2024-03-07T14:31:21;24.55;;;16.58;;
74162;SDS011;62515;52.758;5.076;2024-03-07T14:33:50;25.77;;;16.73;;
74162;SDS011;62515;52.758;5.076;2024-03-07T14:36:35;24.42;;;16.17;;
74162;SDS011;62515;52.758;5.076;2024-03-07T14:39:05;21.00;;;17.60;;
74162;SDS011;62515;52.758;5.076;2024-03-07T14:41:43;24.63;;;20.00;;
74162;SDS011;62515;52.758;5.076;2024-03-07T14:44:15;22.50;;;14.85;;
74162;SDS011;62515;52.758;5.076;2024-03-07T14:46:46;24.85;;;19.08;;
74162;SDS011;62515;52.758;5.076;2024-03-07T14:49:18;22.27;;;17.05;;
74162;SDS011;62515;52.758;5.076;2024-03-07T14:51:45;17.65;;;14.98;;
74162;SDS011;62515;52.758;5.076;2024-03-07T14:54:20;20.73;;;15.18;;
74162;SDS011;62515;52.758;5.076;2024-03-07T14:56:47;22.52;;;19.88;;
74162;SDS011;62515;52.758;5.076;2024-03-07T14:59:14;25.55;;;20.42;;
74162;SDS011;62515;52.758;5.076;2024-03-07T15:01:41;27.38;;;22.38;;
74162;SDS011;62515;52.758;5.076;2024-03-07T15:04:10;22.17;;;18.58;;
74162;SDS011;62515;52.758;5.076;2024-03-07T15:06:38;21.08;;;18.85;;
74162;SDS011;62515;52.758;5.076;2024-03-07T15:09:05;21.50;;;17.65;;
74162;SDS011;62515;52.758;5.076;2024-03-07T15:11:33;21.45;;;15.05;;
74162;SDS011;62515;52.758;5.076;2024-03-07T15:14:01;18.83;;;14.38;;
74162;SDS011;62515;52.758;5.076;2024-03-07T15:16:28;20.55;;;15.30;;
74162;SDS011;62515;52.758;5.076;2024-03-07T15:18:59;18.65;;;12.70;;
74162;SDS011;62515;52.758;5.076;2024-03-07T15:21:28;20.60;;;17.13;;
74162;SDS011;62515;52.758;5.076;2024-03-07T15:23:55;19.67;;;16.00;;
74162;SDS011;62515;52.758;5.076;2024-03-07T15:26:22;33.20;;;29.88;;
74162;SDS011;62515;52.758;5.076;2024-03-07T15:28:51;18.98;;;15.88;;
74162;SDS011;62515;52.758;5.076;2024-03-07T15:31:18;19.30;;;14.98;;
74162;SDS011;62515;52.758;5.076;2024-03-07T15:33:45;20.88;;;18.67;;
74162;SDS011;62515;52.758;5.076;2024-03-07T15:36:12;22.88;;;18.42;;
74162;SDS011;62515;52.758;5.076;2024-03-07T15:38:40;22.15;;;19.67;;
74162;SDS011;62515;52.758;5.076;2024-03-07T15:41:07;23.13;;;20.35;;
74162;SDS011;62515;52.758;5.076;2024-03-07T15:43:33;25.25;;;20.75;;
74162;SDS011;62515;52.758;5.076;2024-03-07T15:46:00;25.55;;;19.13;;
74162;SDS011;62515;52.758;5.076;2024-03-07T15:48:28;24.63;;;22.08;;
74162;SDS011;62515;52.758;5.076;2024-03-07T15:50:54;52.10;;;47.70;;